La Estrella, Argentina
Current Conditions -  °F | °C
As of 7:00 AM on Wednesday 26 Nov 2014 (Local Time) from SASJ Reporting Station
Drizzle Drizzle  
Wind Chill: 18°   Ceiling: 2500
Heat Index: 18°   Visibility: 2.5mi
Dew Point: 18°   Wind: 3mph
Humidity: 100%   Direction: 180°S
Pressure: 29.94"   Gusts: NA
Location:  23.82°S, 64.08°W
Report Text: SASJ 261000Z 18003KT 4000 DZ BR SCT010OVC025 18/18 Q1014
Loading
Personal Weather Stations






























Interactive Weather Map New forecast layout! Learn more

10-Day Weather Forecast

Advertisements
Track Severe Weather on mobile